sensor_id;sensor_type;location;lat;lon;timestamp;temperature;humidity
3312;DHT22;1668;49.648;8.570;2023-03-24T00:00:32;13.10;99.90
3312;DHT22;1668;49.648;8.570;2023-03-24T00:02:59;13.10;99.90
3312;DHT22;1668;49.648;8.570;2023-03-24T00:05:27;13.10;19.30
3312;DHT22;1668;49.648;8.570;2023-03-24T00:07:56;13.10;1.00
3312;DHT22;1668;49.648;8.570;2023-03-24T00:10:24;13.10;1.00
3312;DHT22;1668;49.648;8.570;2023-03-24T00:12:56;13.10;1.00
3312;DHT22;1668;49.648;8.570;2023-03-24T00:15:24;13.10;69.00
3312;DHT22;1668;49.648;8.570;2023-03-24T00:17:51;13.10;1.00
3312;DHT22;1668;49.648;8.570;2023-03-24T00:20:19;13.10;1.00
3312;DHT22;1668;49.648;8.570;2023-03-24T00:22:48;13.10;99.90
3312;DHT22;1668;49.648;8.570;2023-03-24T00:25:19;13.10;99.90
3312;DHT22;1668;49.648;8.570;2023-03-24T00:27:47;13.10;99.90
3312;DHT22;1668;49.648;8.570;2023-03-24T00:30:17;13.10;1.00
3312;DHT22;1668;49.648;8.570;2023-03-24T00:32:45;13.10;1.00
3312;DHT22;1668;49.648;8.570;2023-03-24T00:35:13;13.10;64.80
3312;DHT22;1668;49.648;8.570;2023-03-24T00:37:41;13.00;99.90
3312;DHT22;1668;49.648;8.570;2023-03-24T00:40:11;13.00;1.00
3312;DHT22;1668;49.648;8.570;2023-03-24T00:42:40;13.00;99.90
3312;DHT22;1668;49.648;8.570;2023-03-24T00:45:12;12.90;1.00
3312;DHT22;1668;49.648;8.570;2023-03-24T00:47:39;12.90;1.00
3312;DHT22;1668;49.648;8.570;2023-03-24T00:50:12;12.90;99.90
3312;DHT22;1668;49.648;8.570;2023-03-24T00:52:40;12.90;98.10
3312;DHT22;1668;49.648;8.570;2023-03-24T00:55:09;12.90;1.00
3312;DHT22;1668;49.648;8.570;2023-03-24T00:57:41;12.90;1.00
3312;DHT22;1668;49.648;8.570;2023-03-24T01:00:15;12.90;1.00
3312;DHT22;1668;49.648;8.570;2023-03-24T01:02:44;12.90;1.00
3312;DHT22;1668;49.648;8.570;2023-03-24T01:05:12;12.90;1.00
3312;DHT22;1668;49.648;8.570;2023-03-24T01:07:42;12.90;99.90
3312;DHT22;1668;49.648;8.570;2023-03-24T01:10:12;12.90;99.90
3312;DHT22;1668;49.648;8.570;2023-03-24T01:12:40;12.80;99.90
3312;DHT22;1668;49.648;8.570;2023-03-24T01:15:13;12.80;99.90
3312;DHT22;1668;49.648;8.570;2023-03-24T01:17:41;12.80;99.90
3312;DHT22;1668;49.648;8.570;2023-03-24T01:20:09;12.80;99.90
3312;DHT22;1668;49.648;8.570;2023-03-24T01:22:37;12.80;59.40
3312;DHT22;1668;49.648;8.570;2023-03-24T01:25:06;12.80;99.90
3312;DHT22;1668;49.648;8.570;2023-03-24T01:27:34;12.80;1.00
3312;DHT22;1668;49.648;8.570;2023-03-24T01:30:04;12.80;99.90
3312;DHT22;1668;49.648;8.570;2023-03-24T01:32:31;12.80;1.00
3312;DHT22;1668;49.648;8.570;2023-03-24T01:34:58;12.90;99.90
3312;DHT22;1668;49.648;8.570;2023-03-24T01:37:25;12.90;34.00
3312;DHT22;1668;49.648;8.570;2023-03-24T01:39:52;12.90;1.00
3312;DHT22;1668;49.648;8.570;2023-03-24T01:42:22;12.90;50.40
3312;DHT22;1668;49.648;8.570;2023-03-24T01:44:53;12.90;1.00
3312;DHT22;1668;49.648;8.570;2023-03-24T01:47:22;12.90;1.00
3312;DHT22;1668;49.648;8.570;2023-03-24T01:49:51;12.90;1.00
3312;DHT22;1668;49.648;8.570;2023-03-24T01:52:21;12.90;1.00
3312;DHT22;1668;49.648;8.570;2023-03-24T01:54:51;12.90;99.90
3312;DHT22;1668;49.648;8.570;2023-03-24T01:57:21;12.90;99.90
3312;DHT22;1668;49.648;8.570;2023-03-24T01:59:52;12.90;99.90
3312;DHT22;1668;49.648;8.570;2023-03-24T02:02:22;13.00;99.90
3312;DHT22;1668;49.648;8.570;2023-03-24T02:04:51;13.00;99.90
3312;DHT22;1668;49.648;8.570;2023-03-24T02:07:28;13.00;99.90
3312;DHT22;1668;49.648;8.570;2023-03-24T02:09:57;13.00;99.90
3312;DHT22;1668;49.648;8.570;2023-03-24T02:12:24;13.10;1.00
3312;DHT22;1668;49.648;8.570;2023-03-24T02:14:52;13.10;49.70
3312;DHT22;1668;49.648;8.570;2023-03-24T02:17:35;13.10;1.00
3312;DHT22;1668;49.648;8.570;2023-03-24T02:20:29;13.10;1.00
3312;DHT22;1668;49.648;8.570;2023-03-24T02:23:23;13.10;1.00
3312;DHT22;1668;49.648;8.570;2023-03-24T02:26:19;13.10;1.00
3312;DHT22;1668;49.648;8.570;2023-03-24T02:28:59;13.10;1.00
3312;DHT22;1668;49.648;8.570;2023-03-24T02:31:52;13.10;1.00
3312;DHT22;1668;49.648;8.570;2023-03-24T02:37:52;13.10;1.00
3312;DHT22;1668;49.648;8.570;2023-03-24T02:40:32;13.00;85.10
3312;DHT22;1668;49.648;8.570;2023-03-24T02:43:06;13.00;1.00
3312;DHT22;1668;49.648;8.570;2023-03-24T02:45:40;13.10;35.20
3312;DHT22;1668;49.648;8.570;2023-03-24T02:48:20;13.10;1.00
3312;DHT22;1668;49.648;8.570;2023-03-24T02:50:51;13.10;1.00
3312;DHT22;1668;49.648;8.570;2023-03-24T02:53:24;13.10;1.00
3312;DHT22;1668;49.648;8.570;2023-03-24T02:55:57;13.20;99.90
3312;DHT22;1668;49.648;8.570;2023-03-24T02:58:30;13.30;87.80
3312;DHT22;1668;49.648;8.570;2023-03-24T03:01:04;13.30;1.00
3312;DHT22;1668;49.648;8.570;2023-03-24T03:03:37;13.30;1.00
3312;DHT22;1668;49.648;8.570;2023-03-24T03:06:10;13.30;99.90
3312;DHT22;1668;49.648;8.570;2023-03-24T03:08:40;13.40;99.90
3312;DHT22;1668;49.648;8.570;2023-03-24T03:11:12;13.40;99.90
3312;DHT22;1668;49.648;8.570;2023-03-24T03:13:42;13.50;44.50
3312;DHT22;1668;49.648;8.570;2023-03-24T03:16:15;13.50;1.00
3312;DHT22;1668;49.648;8.570;2023-03-24T03:18:47;13.60;1.00
3312;DHT22;1668;49.648;8.570;2023-03-24T03:21:19;13.60;1.00
3312;DHT22;1668;49.648;8.570;2023-03-24T03:23:51;13.60;1.00
3312;DHT22;1668;49.648;8.570;2023-03-24T03:26:22;13.70;1.00
3312;DHT22;1668;49.648;8.570;2023-03-24T03:28:56;13.70;99.90
3312;DHT22;1668;49.648;8.570;2023-03-24T03:31:27;13.80;99.90
3312;DHT22;1668;49.648;8.570;2023-03-24T03:34:03;13.80;99.90
3312;DHT22;1668;49.648;8.570;2023-03-24T03:36:37;13.80;99.90
3312;DHT22;1668;49.648;8.570;2023-03-24T03:39:10;13.90;27.70
3312;DHT22;1668;49.648;8.570;2023-03-24T03:41:40;13.90;75.20
3312;DHT22;1668;49.648;8.570;2023-03-24T03:44:08;14.00;56.00
3312;DHT22;1668;49.648;8.570;2023-03-24T03:46:35;13.90;72.10
3312;DHT22;1668;49.648;8.570;2023-03-24T03:49:03;13.90;99.90
3312;DHT22;1668;49.648;8.570;2023-03-24T03:51:31;14.00;99.90
3312;DHT22;1668;49.648;8.570;2023-03-24T03:54:01;13.90;99.90
3312;DHT22;1668;49.648;8.570;2023-03-24T03:56:31;14.00;99.90
3312;DHT22;1668;49.648;8.570;2023-03-24T03:59:00;14.00;24.60
3312;DHT22;1668;49.648;8.570;2023-03-24T04:01:31;14.00;99.90
3312;DHT22;1668;49.648;8.570;2023-03-24T04:04:18;14.10;1.00
3312;DHT22;1668;49.648;8.570;2023-03-24T04:06:57;14.10;1.00
3312;DHT22;1668;49.648;8.570;2023-03-24T04:09:36;14.20;1.00
3312;DHT22;1668;49.648;8.570;2023-03-24T04:12:29;14.20;1.00
3312;DHT22;1668;49.648;8.570;2023-03-24T04:15:15;14.30;20.60
3312;DHT22;1668;49.648;8.570;2023-03-24T04:17:56;14.50;1.00
3312;DHT22;1668;49.648;8.570;2023-03-24T04:20:33;14.50;1.00
3312;DHT22;1668;49.648;8.570;2023-03-24T04:23:18;14.50;99.90
3312;DHT22;1668;49.648;8.570;2023-03-24T04:25:55;14.50;99.90
3312;DHT22;1668;49.648;8.570;2023-03-24T04:28:32;14.50;99.90
3312;DHT22;1668;49.648;8.570;2023-03-24T04:31:07;14.60;99.90
3312;DHT22;1668;49.648;8.570;2023-03-24T04:33:45;14.60;99.90
3312;DHT22;1668;49.648;8.570;2023-03-24T04:36:19;14.60;99.90
3312;DHT22;1668;49.648;8.570;2023-03-24T04:38:52;14.60;1.00
3312;DHT22;1668;49.648;8.570;2023-03-24T04:41:23;14.60;1.00
3312;DHT22;1668;49.648;8.570;2023-03-24T04:43:52;14.60;1.00
3312;DHT22;1668;49.648;8.570;2023-03-24T04:46:22;14.60;99.90
3312;DHT22;1668;49.648;8.570;2023-03-24T04:48:49;14.60;99.90
3312;DHT22;1668;49.648;8.570;2023-03-24T04:51:18;14.60;99.90
3312;DHT22;1668;49.648;8.570;2023-03-24T04:53:46;14.60;1.00
3312;DHT22;1668;49.648;8.570;2023-03-24T04:56:26;14.60;1.00
3312;DHT22;1668;49.648;8.570;2023-03-24T04:58:55;14.60;99.90
3312;DHT22;1668;49.648;8.570;2023-03-24T05:01:24;14.50;1.00
3312;DHT22;1668;49.648;8.570;2023-03-24T05:03:54;14.40;1.00
3312;DHT22;1668;49.648;8.570;2023-03-24T05:06:21;14.40;1.00
3312;DHT22;1668;49.648;8.570;2023-03-24T05:08:47;14.30;1.00
3312;DHT22;1668;49.648;8.570;2023-03-24T05:11:17;14.30;1.00
3312;DHT22;1668;49.648;8.570;2023-03-24T05:13:44;14.20;1.00
3312;DHT22;1668;49.648;8.570;2023-03-24T05:16:11;14.10;99.90
3312;DHT22;1668;49.648;8.570;2023-03-24T05:18:39;14.00;30.10
3312;DHT22;1668;49.648;8.570;2023-03-24T05:21:06;13.90;1.00
3312;DHT22;1668;49.648;8.570;2023-03-24T05:23:33;13.90;1.00
3312;DHT22;1668;49.648;8.570;2023-03-24T05:26:00;13.90;1.00
3312;DHT22;1668;49.648;8.570;2023-03-24T05:28:27;13.80;92.70
3312;DHT22;1668;49.648;8.570;2023-03-24T05:30:54;13.70;99.90
3312;DHT22;1668;49.648;8.570;2023-03-24T05:33:21;13.60;99.90
3312;DHT22;1668;49.648;8.570;2023-03-24T05:35:49;13.50;99.90
3312;DHT22;1668;49.648;8.570;2023-03-24T05:38:16;13.50;99.90
3312;DHT22;1668;49.648;8.570;2023-03-24T05:40:43;13.50;99.90
3312;DHT22;1668;49.648;8.570;2023-03-24T05:43:10;13.40;99.90
3312;DHT22;1668;49.648;8.570;2023-03-24T05:45:37;13.40;99.90
3312;DHT22;1668;49.648;8.570;2023-03-24T05:48:05;13.40;99.90
3312;DHT22;1668;49.648;8.570;2023-03-24T05:50:32;13.40;1.00
3312;DHT22;1668;49.648;8.570;2023-03-24T05:53:00;13.40;1.00
3312;DHT22;1668;49.648;8.570;2023-03-24T05:55:27;13.30;1.00
3312;DHT22;1668;49.648;8.570;2023-03-24T05:57:55;13.30;1.00
3312;DHT22;1668;49.648;8.570;2023-03-24T06:00:22;13.30;1.00
3312;DHT22;1668;49.648;8.570;2023-03-24T06:02:49;13.30;1.00
3312;DHT22;1668;49.648;8.570;2023-03-24T06:05:16;13.30;1.00
3312;DHT22;1668;49.648;8.570;2023-03-24T06:07:43;13.30;1.00
3312;DHT22;1668;49.648;8.570;2023-03-24T06:10:11;13.20;1.00
3312;DHT22;1668;49.648;8.570;2023-03-24T06:12:43;13.30;99.90
3312;DHT22;1668;49.648;8.570;2023-03-24T06:15:10;13.30;99.90
3312;DHT22;1668;49.648;8.570;2023-03-24T06:17:42;13.30;99.90
3312;DHT22;1668;49.648;8.570;2023-03-24T06:20:11;13.30;1.00
3312;DHT22;1668;49.648;8.570;2023-03-24T06:22:42;13.30;99.90
3312;DHT22;1668;49.648;8.570;2023-03-24T06:25:11;13.30;99.90
3312;DHT22;1668;49.648;8.570;2023-03-24T06:27:41;13.30;99.90
3312;DHT22;1668;49.648;8.570;2023-03-24T06:30:12;13.30;99.90
3312;DHT22;1668;49.648;8.570;2023-03-24T06:32:40;13.30;99.90
3312;DHT22;1668;49.648;8.570;2023-03-24T06:35:07;13.30;99.90
3312;DHT22;1668;49.648;8.570;2023-03-24T06:37:35;13.30;99.90
3312;DHT22;1668;49.648;8.570;2023-03-24T06:40:02;13.30;99.90
3312;DHT22;1668;49.648;8.570;2023-03-24T06:42:36;13.30;1.00
3312;DHT22;1668;49.648;8.570;2023-03-24T06:45:04;13.30;1.00
3312;DHT22;1668;49.648;8.570;2023-03-24T06:47:31;13.30;1.00
3312;DHT22;1668;49.648;8.570;2023-03-24T06:49:58;13.20;1.00
3312;DHT22;1668;49.648;8.570;2023-03-24T06:52:27;13.20;1.00
3312;DHT22;1668;49.648;8.570;2023-03-24T06:54:54;13.20;1.00
3312;DHT22;1668;49.648;8.570;2023-03-24T06:57:22;13.20;1.00
3312;DHT22;1668;49.648;8.570;2023-03-24T06:59:50;13.20;1.00
3312;DHT22;1668;49.648;8.570;2023-03-24T07:02:18;13.20;1.00
3312;DHT22;1668;49.648;8.570;2023-03-24T07:04:45;13.20;1.00
3312;DHT22;1668;49.648;8.570;2023-03-24T07:07:12;13.20;1.00
3312;DHT22;1668;49.648;8.570;2023-03-24T07:09:38;13.20;1.00
3312;DHT22;1668;49.648;8.570;2023-03-24T07:12:06;13.20;1.00
3312;DHT22;1668;49.648;8.570;2023-03-24T07:14:33;13.20;1.00
3312;DHT22;1668;49.648;8.570;2023-03-24T07:17:01;13.20;1.00
3312;DHT22;1668;49.648;8.570;2023-03-24T07:19:28;13.20;1.00
3312;DHT22;1668;49.648;8.570;2023-03-24T07:21:56;13.20;1.00
3312;DHT22;1668;49.648;8.570;2023-03-24T07:24:23;13.10;1.00
3312;DHT22;1668;49.648;8.570;2023-03-24T07:26:50;13.10;1.00
3312;DHT22;1668;49.648;8.570;2023-03-24T07:29:17;13.10;6.00
3312;DHT22;1668;49.648;8.570;2023-03-24T07:31:44;13.10;39.60
3312;DHT22;1668;49.648;8.570;2023-03-24T07:34:14;13.10;74.50
3312;DHT22;1668;49.648;8.570;2023-03-24T07:36:41;13.10;91.00
3312;DHT22;1668;49.648;8.570;2023-03-24T07:39:08;13.10;99.90
3312;DHT22;1668;49.648;8.570;2023-03-24T07:41:35;13.10;99.90
3312;DHT22;1668;49.648;8.570;2023-03-24T07:44:02;13.10;99.90
3312;DHT22;1668;49.648;8.570;2023-03-24T07:46:29;13.10;99.90
3312;DHT22;1668;49.648;8.570;2023-03-24T07:48:56;13.10;99.90
3312;DHT22;1668;49.648;8.570;2023-03-24T07:51:24;13.10;99.90
3312;DHT22;1668;49.648;8.570;2023-03-24T07:53:51;13.10;98.40
3312;DHT22;1668;49.648;8.570;2023-03-24T07:56:18;13.10;93.60
3312;DHT22;1668;49.648;8.570;2023-03-24T07:58:44;13.10;79.50
3312;DHT22;1668;49.648;8.570;2023-03-24T08:01:12;13.10;62.90
3312;DHT22;1668;49.648;8.570;2023-03-24T08:03:39;13.10;39.50
3312;DHT22;1668;49.648;8.570;2023-03-24T08:06:07;13.20;1.10
3312;DHT22;1668;49.648;8.570;2023-03-24T08:08:36;13.20;1.00
3312;DHT22;1668;49.648;8.570;2023-03-24T08:11:03;13.20;1.00
3312;DHT22;1668;49.648;8.570;2023-03-24T08:13:30;13.20;1.00
3312;DHT22;1668;49.648;8.570;2023-03-24T08:15:57;13.20;1.00
3312;DHT22;1668;49.648;8.570;2023-03-24T08:18:24;13.30;1.00
3312;DHT22;1668;49.648;8.570;2023-03-24T08:20:55;13.30;1.00
3312;DHT22;1668;49.648;8.570;2023-03-24T08:23:23;13.30;1.00
3312;DHT22;1668;49.648;8.570;2023-03-24T08:25:52;13.30;1.00
3312;DHT22;1668;49.648;8.570;2023-03-24T08:28:18;13.30;1.00
3312;DHT22;1668;49.648;8.570;2023-03-24T08:30:46;13.30;1.00
3312;DHT22;1668;49.648;8.570;2023-03-24T08:33:14;13.40;1.00
3312;DHT22;1668;49.648;8.570;2023-03-24T08:35:41;13.40;1.00
3312;DHT22;1668;49.648;8.570;2023-03-24T08:38:10;13.40;1.00
3312;DHT22;1668;49.648;8.570;2023-03-24T08:40:40;13.40;1.00
3312;DHT22;1668;49.648;8.570;2023-03-24T08:43:12;13.40;1.00
3312;DHT22;1668;49.648;8.570;2023-03-24T08:45:39;13.40;1.00
3312;DHT22;1668;49.648;8.570;2023-03-24T08:48:07;13.40;1.00
3312;DHT22;1668;49.648;8.570;2023-03-24T08:50:36;13.40;1.00
3312;DHT22;1668;49.648;8.570;2023-03-24T08:53:04;13.50;1.00
3312;DHT22;1668;49.648;8.570;2023-03-24T08:55:31;13.40;1.00
3312;DHT22;1668;49.648;8.570;2023-03-24T08:57:58;13.40;1.00
3312;DHT22;1668;49.648;8.570;2023-03-24T09:00:34;13.40;1.00
3312;DHT22;1668;49.648;8.570;2023-03-24T09:03:01;13.40;1.00
3312;DHT22;1668;49.648;8.570;2023-03-24T09:05:28;13.40;1.00
3312;DHT22;1668;49.648;8.570;2023-03-24T09:07:55;13.40;1.00
3312;DHT22;1668;49.648;8.570;2023-03-24T09:10:23;13.40;1.00
3312;DHT22;1668;49.648;8.570;2023-03-24T09:12:50;13.40;1.00
3312;DHT22;1668;49.648;8.570;2023-03-24T09:15:17;13.40;1.00
3312;DHT22;1668;49.648;8.570;2023-03-24T09:17:45;13.40;1.00
3312;DHT22;1668;49.648;8.570;2023-03-24T09:20:13;13.40;1.00
3312;DHT22;1668;49.648;8.570;2023-03-24T09:22:42;13.40;1.00
3312;DHT22;1668;49.648;8.570;2023-03-24T09:25:11;13.40;1.00
3312;DHT22;1668;49.648;8.570;2023-03-24T09:27:39;13.40;1.00
3312;DHT22;1668;49.648;8.570;2023-03-24T09:30:07;13.40;1.00
3312;DHT22;1668;49.648;8.570;2023-03-24T09:32:34;13.40;1.00
3312;DHT22;1668;49.648;8.570;2023-03-24T09:35:03;13.40;1.00
3312;DHT22;1668;49.648;8.570;2023-03-24T09:37:31;13.40;1.00
3312;DHT22;1668;49.648;8.570;2023-03-24T09:39:58;13.40;1.00
3312;DHT22;1668;49.648;8.570;2023-03-24T09:42:29;13.50;1.00
3312;DHT22;1668;49.648;8.570;2023-03-24T09:44:58;13.50;1.00
3312;DHT22;1668;49.648;8.570;2023-03-24T09:47:29;13.50;1.00
3312;DHT22;1668;49.648;8.570;2023-03-24T09:50:01;13.50;1.00
3312;DHT22;1668;49.648;8.570;2023-03-24T09:52:34;13.50;1.00
3312;DHT22;1668;49.648;8.570;2023-03-24T09:55:03;13.50;1.00
3312;DHT22;1668;49.648;8.570;2023-03-24T09:57:35;13.50;1.00
3312;DHT22;1668;49.648;8.570;2023-03-24T10:00:15;13.50;1.00
3312;DHT22;1668;49.648;8.570;2023-03-24T10:02:43;13.50;1.00
3312;DHT22;1668;49.648;8.570;2023-03-24T10:05:14;13.50;1.00
3312;DHT22;1668;49.648;8.570;2023-03-24T10:07:48;13.50;1.00
3312;DHT22;1668;49.648;8.570;2023-03-24T10:10:23;13.50;1.00
3312;DHT22;1668;49.648;8.570;2023-03-24T10:12:57;13.50;1.00
3312;DHT22;1668;49.648;8.570;2023-03-24T10:15:32;13.50;1.00
3312;DHT22;1668;49.648;8.570;2023-03-24T10:18:14;13.50;1.00
3312;DHT22;1668;49.648;8.570;2023-03-24T10:20:51;13.50;91.20
3312;DHT22;1668;49.648;8.570;2023-03-24T10:23:28;13.40;99.90
3312;DHT22;1668;49.648;8.570;2023-03-24T10:26:02;13.40;99.90
3312;DHT22;1668;49.648;8.570;2023-03-24T10:28:37;13.30;99.90
3312;DHT22;1668;49.648;8.570;2023-03-24T10:31:10;13.30;99.90
3312;DHT22;1668;49.648;8.570;2023-03-24T10:33:41;13.30;99.90
3312;DHT22;1668;49.648;8.570;2023-03-24T10:36:10;13.30;99.90
3312;DHT22;1668;49.648;8.570;2023-03-24T10:38:40;13.30;99.90
3312;DHT22;1668;49.648;8.570;2023-03-24T10:41:14;13.30;99.90
3312;DHT22;1668;49.648;8.570;2023-03-24T10:43:42;13.30;99.90
3312;DHT22;1668;49.648;8.570;2023-03-24T10:46:11;13.20;99.90
3312;DHT22;1668;49.648;8.570;2023-03-24T10:48:42;13.20;99.90
3312;DHT22;1668;49.648;8.570;2023-03-24T10:51:17;13.20;99.90
3312;DHT22;1668;49.648;8.570;2023-03-24T10:53:47;13.30;99.90
3312;DHT22;1668;49.648;8.570;2023-03-24T10:56:36;13.10;99.90
3312;DHT22;1668;49.648;8.570;2023-03-24T10:59:13;12.80;99.90
3312;DHT22;1668;49.648;8.570;2023-03-24T11:01:41;12.70;99.90
3312;DHT22;1668;49.648;8.570;2023-03-24T11:04:12;12.60;99.90
3312;DHT22;1668;49.648;8.570;2023-03-24T11:06:56;12.60;99.90
3312;DHT22;1668;49.648;8.570;2023-03-24T11:09:27;12.60;99.90
3312;DHT22;1668;49.648;8.570;2023-03-24T11:11:54;12.60;99.90
3312;DHT22;1668;49.648;8.570;2023-03-24T11:14:24;12.60;99.90
3312;DHT22;1668;49.648;8.570;2023-03-24T11:16:52;12.60;99.90
3312;DHT22;1668;49.648;8.570;2023-03-24T11:19:21;12.60;99.90
3312;DHT22;1668;49.648;8.570;2023-03-24T11:21:50;12.60;99.90
3312;DHT22;1668;49.648;8.570;2023-03-24T11:24:19;12.60;99.90
3312;DHT22;1668;49.648;8.570;2023-03-24T11:26:51;12.70;99.90
3312;DHT22;1668;49.648;8.570;2023-03-24T11:29:21;12.70;99.90
3312;DHT22;1668;49.648;8.570;2023-03-24T11:31:52;12.80;99.90
3312;DHT22;1668;49.648;8.570;2023-03-24T11:34:21;12.80;99.90
3312;DHT22;1668;49.648;8.570;2023-03-24T11:36:52;12.80;99.90
3312;DHT22;1668;49.648;8.570;2023-03-24T11:39:22;12.80;99.90
3312;DHT22;1668;49.648;8.570;2023-03-24T11:42:03;12.80;99.90
3312;DHT22;1668;49.648;8.570;2023-03-24T11:44:40;12.80;99.90
3312;DHT22;1668;49.648;8.570;2023-03-24T11:47:11;12.80;99.90
3312;DHT22;1668;49.648;8.570;2023-03-24T11:49:42;12.80;99.90
3312;DHT22;1668;49.648;8.570;2023-03-24T11:52:18;12.80;99.90
3312;DHT22;1668;49.648;8.570;2023-03-24T11:54:45;12.80;99.90
3312;DHT22;1668;49.648;8.570;2023-03-24T11:57:17;12.80;99.90
3312;DHT22;1668;49.648;8.570;2023-03-24T11:59:50;12.90;99.90
3312;DHT22;1668;49.648;8.570;2023-03-24T12:02:30;12.90;99.90
3312;DHT22;1668;49.648;8.570;2023-03-24T12:05:20;12.90;99.90
3312;DHT22;1668;49.648;8.570;2023-03-24T12:08:25;12.90;99.90
3312;DHT22;1668;49.648;8.570;2023-03-24T12:11:06;12.90;99.90
3312;DHT22;1668;49.648;8.570;2023-03-24T12:13:40;13.00;99.90
3312;DHT22;1668;49.648;8.570;2023-03-24T12:16:20;13.00;99.90
3312;DHT22;1668;49.648;8.570;2023-03-24T12:19:02;13.00;1.00
3312;DHT22;1668;49.648;8.570;2023-03-24T12:21:43;13.00;1.00
3312;DHT22;1668;49.648;8.570;2023-03-24T12:24:21;13.10;99.90
3312;DHT22;1668;49.648;8.570;2023-03-24T12:26:57;13.10;1.00
3312;DHT22;1668;49.648;8.570;2023-03-24T12:29:34;13.20;1.00
3312;DHT22;1668;49.648;8.570;2023-03-24T12:32:24;13.20;1.00
3312;DHT22;1668;49.648;8.570;2023-03-24T12:35:08;13.30;1.00
3312;DHT22;1668;49.648;8.570;2023-03-24T12:37:47;13.40;1.00
3312;DHT22;1668;49.648;8.570;2023-03-24T12:40:32;13.40;99.90
3312;DHT22;1668;49.648;8.570;2023-03-24T12:43:14;13.60;99.90
3312;DHT22;1668;49.648;8.570;2023-03-24T12:45:46;13.70;99.90
3312;DHT22;1668;49.648;8.570;2023-03-24T12:51:22;13.80;90.80
3312;DHT22;1668;49.648;8.570;2023-03-24T12:54:04;13.90;99.90
3312;DHT22;1668;49.648;8.570;2023-03-24T12:56:40;14.00;99.90
3312;DHT22;1668;49.648;8.570;2023-03-24T12:59:11;14.10;99.90
3312;DHT22;1668;49.648;8.570;2023-03-24T13:01:42;14.10;1.00
3312;DHT22;1668;49.648;8.570;2023-03-24T13:04:14;14.10;99.90
3312;DHT22;1668;49.648;8.570;2023-03-24T13:06:45;14.20;99.90
3312;DHT22;1668;49.648;8.570;2023-03-24T13:09:21;14.10;99.90
3312;DHT22;1668;49.648;8.570;2023-03-24T13:11:56;14.10;1.00
3312;DHT22;1668;49.648;8.570;2023-03-24T13:14:28;14.10;52.50
3312;DHT22;1668;49.648;8.570;2023-03-24T13:17:04;14.20;1.00
3312;DHT22;1668;49.648;8.570;2023-03-24T13:19:36;14.20;99.90
3312;DHT22;1668;49.648;8.570;2023-03-24T13:22:05;14.20;1.00
3312;DHT22;1668;49.648;8.570;2023-03-24T13:24:35;14.20;99.90
3312;DHT22;1668;49.648;8.570;2023-03-24T13:27:08;14.20;99.90
3312;DHT22;1668;49.648;8.570;2023-03-24T13:29:50;14.30;99.90
3312;DHT22;1668;49.648;8.570;2023-03-24T13:32:29;14.40;99.90
3312;DHT22;1668;49.648;8.570;2023-03-24T13:35:00;14.40;90.20
3312;DHT22;1668;49.648;8.570;2023-03-24T13:37:33;14.60;1.00
3312;DHT22;1668;49.648;8.570;2023-03-24T13:40:06;14.70;99.90
3312;DHT22;1668;49.648;8.570;2023-03-24T13:42:40;14.70;1.00
3312;DHT22;1668;49.648;8.570;2023-03-24T13:45:25;14.70;1.00
3312;DHT22;1668;49.648;8.570;2023-03-24T13:48:03;14.80;1.00
3312;DHT22;1668;49.648;8.570;2023-03-24T13:50:31;14.70;1.00
3312;DHT22;1668;49.648;8.570;2023-03-24T13:53:05;14.80;1.00
3312;DHT22;1668;49.648;8.570;2023-03-24T13:55:35;14.90;99.90
3312;DHT22;1668;49.648;8.570;2023-03-24T13:58:06;15.00;99.60
3312;DHT22;1668;49.648;8.570;2023-03-24T14:03:38;15.60;39.60
3312;DHT22;1668;49.648;8.570;2023-03-24T14:06:07;16.00;1.00
3312;DHT22;1668;49.648;8.570;2023-03-24T14:08:41;16.20;99.90
3312;DHT22;1668;49.648;8.570;2023-03-24T14:11:45;16.30;99.90
3312;DHT22;1668;49.648;8.570;2023-03-24T14:14:19;16.50;99.90
3312;DHT22;1668;49.648;8.570;2023-03-24T14:16:52;16.70;99.90
3312;DHT22;1668;49.648;8.570;2023-03-24T14:19:31;16.90;47.50
3312;DHT22;1668;49.648;8.570;2023-03-24T14:22:09;17.00;66.30
3312;DHT22;1668;49.648;8.570;2023-03-24T14:24:38;17.10;1.00
3312;DHT22;1668;49.648;8.570;2023-03-24T14:27:36;17.20;1.00
3312;DHT22;1668;49.648;8.570;2023-03-24T14:30:15;17.40;1.00
3312;DHT22;1668;49.648;8.570;2023-03-24T14:32:46;17.60;1.00
3312;DHT22;1668;49.648;8.570;2023-03-24T14:35:32;17.70;1.00
3312;DHT22;1668;49.648;8.570;2023-03-24T14:38:02;17.80;1.00
3312;DHT22;1668;49.648;8.570;2023-03-24T14:40:34;17.90;1.00
3312;DHT22;1668;49.648;8.570;2023-03-24T14:43:22;18.00;1.00
3312;DHT22;1668;49.648;8.570;2023-03-24T14:45:55;17.90;1.00
3312;DHT22;1668;49.648;8.570;2023-03-24T14:48:30;18.00;1.00
3312;DHT22;1668;49.648;8.570;2023-03-24T14:51:02;18.20;1.00
3312;DHT22;1668;49.648;8.570;2023-03-24T14:53:34;18.40;1.00
3312;DHT22;1668;49.648;8.570;2023-03-24T14:56:02;18.60;1.00
3312;DHT22;1668;49.648;8.570;2023-03-24T14:58:32;18.30;1.00
3312;DHT22;1668;49.648;8.570;2023-03-24T15:01:04;18.20;1.00
3312;DHT22;1668;49.648;8.570;2023-03-24T15:03:35;18.20;1.00
3312;DHT22;1668;49.648;8.570;2023-03-24T15:06:13;18.20;1.00
3312;DHT22;1668;49.648;8.570;2023-03-24T15:08:44;18.20;1.00
3312;DHT22;1668;49.648;8.570;2023-03-24T15:11:14;18.00;1.00
3312;DHT22;1668;49.648;8.570;2023-03-24T15:13:42;17.80;1.00
3312;DHT22;1668;49.648;8.570;2023-03-24T15:16:17;17.60;1.00
3312;DHT22;1668;49.648;8.570;2023-03-24T15:18:46;17.40;1.00
3312;DHT22;1668;49.648;8.570;2023-03-24T15:21:22;17.30;1.00
3312;DHT22;1668;49.648;8.570;2023-03-24T15:23:50;17.30;1.00
3312;DHT22;1668;49.648;8.570;2023-03-24T15:26:18;17.30;1.00
3312;DHT22;1668;49.648;8.570;2023-03-24T15:28:52;17.20;1.00
3312;DHT22;1668;49.648;8.570;2023-03-24T15:31:19;17.20;1.00
3312;DHT22;1668;49.648;8.570;2023-03-24T15:33:50;17.20;1.00
3312;DHT22;1668;49.648;8.570;2023-03-24T15:36:22;17.20;1.00
3312;DHT22;1668;49.648;8.570;2023-03-24T15:38:50;17.20;1.00
3312;DHT22;1668;49.648;8.570;2023-03-24T15:41:19;17.10;1.00
3312;DHT22;1668;49.648;8.570;2023-03-24T15:43:50;17.00;1.00
3312;DHT22;1668;49.648;8.570;2023-03-24T15:46:27;17.00;1.00
3312;DHT22;1668;49.648;8.570;2023-03-24T15:48:55;17.00;1.00
3312;DHT22;1668;49.648;8.570;2023-03-24T15:51:45;17.00;1.00
3312;DHT22;1668;49.648;8.570;2023-03-24T15:54:20;16.90;1.00
3312;DHT22;1668;49.648;8.570;2023-03-24T15:57:02;16.80;1.00
3312;DHT22;1668;49.648;8.570;2023-03-24T15:59:41;16.80;1.00
3312;DHT22;1668;49.648;8.570;2023-03-24T16:02:13;16.70;1.00
3312;DHT22;1668;49.648;8.570;2023-03-24T16:04:43;16.60;1.00
3312;DHT22;1668;49.648;8.570;2023-03-24T16:07:23;16.60;1.00
3312;DHT22;1668;49.648;8.570;2023-03-24T16:09:55;16.60;1.00
3312;DHT22;1668;49.648;8.570;2023-03-24T16:12:23;16.60;1.00
3312;DHT22;1668;49.648;8.570;2023-03-24T16:14:50;16.60;1.00
3312;DHT22;1668;49.648;8.570;2023-03-24T16:17:17;16.60;1.00
3312;DHT22;1668;49.648;8.570;2023-03-24T16:19:44;16.50;1.00
3312;DHT22;1668;49.648;8.570;2023-03-24T16:22:11;16.50;1.00
3312;DHT22;1668;49.648;8.570;2023-03-24T16:24:39;16.40;1.00
3312;DHT22;1668;49.648;8.570;2023-03-24T16:27:07;16.40;1.00
3312;DHT22;1668;49.648;8.570;2023-03-24T16:29:34;16.40;1.00
3312;DHT22;1668;49.648;8.570;2023-03-24T16:32:01;16.30;1.00
3312;DHT22;1668;49.648;8.570;2023-03-24T16:34:28;16.30;1.00
3312;DHT22;1668;49.648;8.570;2023-03-24T16:36:56;16.30;1.00
3312;DHT22;1668;49.648;8.570;2023-03-24T16:39:24;16.20;1.00
3312;DHT22;1668;49.648;8.570;2023-03-24T16:41:53;16.20;1.00
3312;DHT22;1668;49.648;8.570;2023-03-24T16:44:21;16.20;1.00
3312;DHT22;1668;49.648;8.570;2023-03-24T16:46:50;16.20;1.00